Time;durP1;ratioP1;P1;durP2;ratioP2;P2;SDS_P1;SDS_P2;PMS_P1;PMS_P2;Temp;Humidity;BMP_temperature;BMP_pressure;BME280_temperature;BME280_humidity;BME280_pressure;Samples;Min_cycle;Max_cycle;Signal;HPM_P1;HPM_P2
2023/03/16 00:02:04;;;;;;;6.15;3.15;;;;;;;6.69;58.78;100626.47;6249035;23;20087;-86
2023/03/16 00:04:30;;;;;;;5.78;3.22;;;;;;;6.76;57.24;100628.38;6250180;23;20458;-86
2023/03/16 00:06:56;;;;;;;11.60;2.83;;;;;;;7.06;56.64;100642.47;6226012;23;20015;-87
2023/03/16 00:09:29;;;;;;;4.82;2.90;;;;;;;7.06;56.14;100642.47;6256492;23;20411;-87
2023/03/16 00:12:01;;;;;;;3.85;2.63;;;;;;;7.18;56.13;100634.31;6255275;23;20019;-88
2023/03/16 00:14:28;;;;;;;5.15;2.50;;;;;;;7.28;55.29;100636.94;6231093;23;20027;-87
2023/03/16 00:16:53;;;;;;;4.30;2.60;;;;;;;6.97;55.30;100640.63;6231074;23;20012;-89
2023/03/16 00:19:21;;;;;;;3.47;1.98;;;;;;;6.82;56.10;100640.22;6252526;23;20435;-87
2023/03/16 00:21:51;;;;;;;6.00;2.50;;;;;;;7.16;55.40;100643.28;6253755;23;20004;-86
2023/03/16 00:24:18;;;;;;;5.20;2.50;;;;;;;7.00;55.82;100643.84;6254707;23;20060;-87
2023/03/16 00:26:47;;;;;;;6.22;2.78;;;;;;;7.00;56.50;100643.00;6256190;23;20008;-86
2023/03/16 00:29:13;;;;;;;4.93;2.50;;;;;;;6.94;56.18;100643.53;6226477;23;20039;-86
2023/03/16 00:31:42;;;;;;;5.45;2.97;;;;;;;6.99;56.31;100644.81;6228547;23;20031;-85
2023/03/16 00:34:09;;;;;;;7.05;3.00;;;;;;;6.67;57.29;100645.00;6226999;23;20091;-85
2023/03/16 00:36:37;;;;;;;8.73;3.17;;;;;;;6.49;58.54;100644.00;6227337;23;20051;-88
2023/03/16 00:39:04;;;;;;;4.25;3.00;;;;;;;6.31;58.79;100648.19;6255681;23;20016;-89
2023/03/16 00:41:30;;;;;;;8.20;2.80;;;;;;;6.28;59.33;100635.31;6230352;23;20019;-87
2023/03/16 00:43:55;;;;;;;4.43;2.97;;;;;;;6.65;57.97;100639.06;6255119;23;20068;-87
2023/03/16 00:46:25;;;;;;;5.72;3.50;;;;;;;6.78;56.62;100637.97;6230837;23;20035;-83
2023/03/16 00:48:51;;;;;;;5.80;3.08;;;;;;;6.23;57.79;100643.59;6222049;23;20012;-84
2023/03/16 00:51:17;;;;;;;5.90;3.05;;;;;;;5.86;59.32;100636.34;6219426;23;20011;-83
2023/03/16 00:53:45;;;;;;;5.38;3.15;;;;;;;6.19;58.46;100639.56;6245285;23;20430;-82
2023/03/16 00:56:12;;;;;;;4.20;2.50;;;;;;;6.23;58.49;100640.16;6218242;23;20015;-82
2023/03/16 00:58:41;;;;;;;4.88;2.65;;;;;;;6.64;57.27;100640.00;6245089;23;20080;-83
2023/03/16 01:01:13;;;;;;;4.97;2.58;;;;;;;6.54;57.06;100639.16;6218524;23;20024;-81
2023/03/16 01:03:39;;;;;;;6.55;2.90;;;;;;;6.18;58.21;100644.94;6245232;23;20035;-81
2023/03/16 01:06:09;;;;;;;5.53;2.78;;;;;;;6.17;57.76;100643.28;6218027;23;20051;-80
2023/03/16 01:08:36;;;;;;;7.75;3.20;;;;;;;5.76;58.78;100644.13;6218452;23;20112;-82
2023/03/16 01:11:09;;;;;;;6.97;2.42;;;;;;;5.74;59.24;100638.97;6245518;23;20012;-82
2023/03/16 01:13:35;;;;;;;4.75;2.45;;;;;;;5.89;58.54;100636.06;6217922;23;20027;-82
2023/03/16 01:16:02;;;;;;;3.42;2.35;;;;;;;5.92;58.45;100636.66;6245605;23;20336;-82
2023/03/16 01:18:29;;;;;;;3.40;2.15;;;;;;;6.03;58.28;100630.47;6245513;23;20476;-83
2023/03/16 01:20:54;;;;;;;3.50;2.30;;;;;;;6.33;57.65;100634.91;6246294;23;20015;-84
2023/03/16 01:23:21;;;;;;;4.90;2.50;;;;;;;6.26;57.38;100637.25;6246879;23;20008;-83
2023/03/16 01:25:51;;;;;;;4.22;2.17;;;;;;;6.36;56.96;100646.03;6246588;23;20008;-83
2023/03/16 01:28:25;;;;;;;4.40;2.20;;;;;;;6.66;56.33;100635.44;6246720;23;20009;-83
2023/03/16 01:30:56;;;;;;;4.40;2.30;;;;;;;6.27;55.16;100636.25;6219642;23;20015;-83
2023/03/16 01:33:27;;;;;;;4.05;2.10;;;;;;;6.12;56.00;100640.22;6220067;23;20082;-82
2023/03/16 01:36:01;;;;;;;3.58;2.20;;;;;;;5.81;56.16;100639.31;6195003;23;20042;-83
2023/03/16 01:38:32;;;;;;;4.68;2.10;;;;;;;5.57;57.42;100638.72;6221130;23;20042;-82
2023/03/16 01:40:58;;;;;;;4.00;2.20;;;;;;;5.65;57.80;100637.13;6225768;23;20020;-83
2023/03/16 01:43:26;;;;;;;5.60;2.20;;;;;;;5.50;58.02;100637.56;6232177;23;20019;-82
2023/03/16 01:46:03;;;;;;;5.00;2.22;;;;;;;5.50;58.22;100632.31;6234266;23;20046;-81
2023/03/16 01:48:49;;;;;;;3.92;2.10;;;;;;;5.45;58.99;100632.69;6223287;23;20016;-82
2023/03/16 01:51:31;;;;;;;4.38;2.25;;;;;;;5.39;58.84;100629.72;6247571;23;20440;-84
2023/03/16 01:54:39;;;;;;;3.45;2.22;;;;;;;5.37;58.98;100635.09;6219497;23;20016;-83
2023/03/16 01:57:10;;;;;;;3.03;2.00;;;;;;;5.12;59.73;100620.53;6220276;23;20008;-83
2023/03/16 01:59:40;;;;;;;2.15;1.60;;;;;;;5.43;59.06;100632.00;6219490;23;20012;-83
2023/03/16 02:02:07;;;;;;;2.72;1.90;;;;;;;5.21;59.46;100630.28;6219553;23;20061;-82
2023/03/16 02:04:51;;;;;;;3.15;1.92;;;;;;;5.38;59.07;100635.94;6219819;23;20016;-82
2023/03/16 02:07:23;;;;;;;4.07;2.50;;;;;;;5.49;58.20;100642.00;6220388;23;20019;-83
2023/03/16 02:09:55;;;;;;;3.45;1.92;;;;;;;5.58;58.84;100629.88;6219697;23;20012;-81
2023/03/16 02:12:21;;;;;;;2.22;1.60;;;;;;;5.73;57.64;100629.41;6219696;23;20055;-83
2023/03/16 02:14:51;;;;;;;3.20;1.70;;;;;;;5.36;58.64;100641.34;6223890;23;20009;-81
2023/03/16 02:17:20;;;;;;;2.80;1.90;;;;;;;5.39;58.93;100641.09;6230447;23;20043;-83
2023/03/16 02:19:52;;;;;;;2.90;1.67;;;;;;;5.49;58.84;100642.00;6229667;23;20439;-85
2023/03/16 02:22:18;;;;;;;3.47;1.80;;;;;;;5.73;58.40;100634.69;6259662;23;20012;-83
2023/03/16 02:24:44;;;;;;;3.13;2.17;;;;;;;6.02;57.83;100631.44;6233062;23;20007;-82
2023/03/16 02:27:16;;;;;;;3.28;1.83;;;;;;;5.58;59.28;100632.50;6245390;23;20008;-81
2023/03/16 02:30:01;;;;;;;;;;;;;;;5.38;60.15;100634.16;6245588;23;20016;-83
2023/03/16 02:32:32;;;;;;;2.28;1.63;;;;;;;5.33;61.51;100632.88;6245794;23;20129;-80
2023/03/16 02:35:01;;;;;;;2.83;1.98;;;;;;;4.99;62.13;100627.72;6221256;23;20016;-82
2023/03/16 02:37:27;;;;;;;2.90;1.90;;;;;;;4.93;62.29;100635.28;6247113;23;20062;-84
2023/03/16 02:39:53;;;;;;;2.50;1.73;;;;;;;4.72;62.86;100650.09;6247219;23;20030;-83
2023/03/16 02:42:24;;;;;;;3.35;1.90;;;;;;;4.58;63.78;100638.91;6219590;23;20012;-81
2023/03/16 02:44:58;;;;;;;2.85;1.73;;;;;;;4.67;64.18;100643.41;6219950;23;20095;-81
2023/03/16 02:47:34;;;;;;;2.55;1.98;;;;;;;4.90;64.15;100638.16;6221821;23;20046;-81
2023/03/16 02:50:03;;;;;;;2.23;1.60;;;;;;;4.64;65.95;100648.91;6223221;23;20046;-82
2023/03/16 02:52:29;;;;;;;7.80;2.17;;;;;;;4.62;65.14;100635.09;6247265;23;20421;-81
2023/03/16 02:54:54;;;;;;;6.05;2.20;;;;;;;4.60;65.60;100650.13;6248564;23;20008;-82
2023/03/16 02:57:20;;;;;;;2.97;1.90;;;;;;;4.55;65.83;100644.41;6196403;23;20064;-82
2023/03/16 02:59:46;;;;;;;3.25;1.83;;;;;;;4.57;66.00;100647.72;6219122;23;20340;-81
2023/03/16 03:02:11;;;;;;;3.70;2.40;;;;;;;4.51;66.98;100650.84;6218841;23;20024;-84
2023/03/16 03:04:37;;;;;;;3.85;2.53;;;;;;;4.43;67.37;100649.78;6219035;23;20491;-81
2023/03/16 03:07:31;;;;;;;3.00;2.00;;;;;;;4.82;66.73;100645.78;6221662;23;20436;-83
2023/03/16 03:10:05;;;;;;;3.05;2.10;;;;;;;4.78;66.99;100649.59;6225364;22;20031;-84
2023/03/16 03:12:32;;;;;;;3.55;2.17;;;;;;;4.73;68.11;100651.78;6248773;23;20444;-82
2023/03/16 03:14:58;;;;;;;3.85;2.53;;;;;;;4.78;66.33;100654.84;6194230;23;20027;-82
2023/03/16 03:17:28;;;;;;;3.40;2.40;;;;;;;4.72;66.91;100660.59;6219128;23;20035;-82
2023/03/16 03:20:12;;;;;;;2.83;2.03;;;;;;;4.77;67.92;100653.22;6193709;23;20004;-83
2023/03/16 03:22:39;;;;;;;3.08;2.30;;;;;;;4.79;67.34;100659.16;6218300;23;20061;-80
2023/03/16 03:25:05;;;;;;;4.43;2.70;;;;;;;4.35;72.01;100663.47;6245332;23;20054;-84
2023/03/16 03:27:34;;;;;;;4.55;2.72;;;;;;;4.27;72.97;100665.88;6245657;23;20020;-82
2023/03/16 03:30:04;;;;;;;4.10;2.70;;;;;;;4.31;73.50;100667.28;6194016;23;20014;-82
2023/03/16 03:32:30;;;;;;;5.57;2.70;;;;;;;4.43;72.78;100671.59;6245599;23;20026;-80
2023/03/16 03:34:55;;;;;;;4.70;2.50;;;;;;;4.51;72.07;100666.56;6243606;23;20397;-81
2023/03/16 03:37:21;;;;;;;5.95;3.00;;;;;;;4.35;72.29;100671.34;6219084;23;20444;-81
2023/03/16 03:39:48;;;;;;;4.30;2.55;;;;;;;4.33;72.78;100677.69;6218086;23;20335;-81
2023/03/16 03:42:14;;;;;;;5.35;2.92;;;;;;;4.66;71.21;100677.69;6218801;23;20083;-82
2023/03/16 03:44:39;;;;;;;5.43;2.80;;;;;;;4.69;71.12;100682.69;6218054;23;20039;-81
2023/03/16 03:47:05;;;;;;;10.05;3.08;;;;;;;4.90;70.85;100685.41;6217677;23;20027;-83
2023/03/16 03:49:30;;;;;;;3.30;2.55;;;;;;;4.96;71.37;100692.81;6245599;23;20008;-82
2023/03/16 03:51:58;;;;;;;5.95;2.75;;;;;;;4.94;70.65;100692.91;6218258;23;20100;-81
2023/03/16 03:54:25;;;;;;;4.75;2.80;;;;;;;5.08;70.59;100694.44;6218307;23;20042;-82
2023/03/16 03:56:57;;;;;;;3.20;2.15;;;;;;;5.22;69.54;100699.44;6218584;23;20012;-81
2023/03/16 03:59:23;;;;;;;5.00;2.50;;;;;;;5.15;68.84;100709.59;6218099;23;20146;-81
2023/03/16 04:02:09;;;;;;;8.00;2.90;;;;;;;5.20;68.42;100709.25;6183710;23;20020;-81
2023/03/16 04:04:43;;;;;;;5.50;2.58;;;;;;;5.38;67.67;100702.47;6218394;23;20000;-84
2023/03/16 04:07:10;;;;;;;6.43;2.90;;;;;;;5.39;67.09;100700.69;6219776;23;20044;-81
2023/03/16 04:09:37;;;;;;;4.38;2.75;;;;;;;5.50;66.32;100705.91;6219505;23;20008;-81
2023/03/16 04:12:04;;;;;;;4.53;2.60;;;;;;;5.43;66.76;100708.22;6219811;23;20050;-79
2023/03/16 04:14:31;;;;;;;5.95;3.15;;;;;;;5.08;68.15;100716.28;6219692;23;20040;-81
2023/03/16 04:16:58;;;;;;;5.85;2.58;;;;;;;5.00;68.29;100712.63;6219831;23;20004;-79
2023/03/16 04:19:24;;;;;;;6.80;3.08;;;;;;;4.93;68.62;100716.69;6219683;23;20008;-82
2023/03/16 04:21:51;;;;;;;7.40;2.92;;;;;;;4.93;69.37;100719.31;6194928;23;20004;-83
2023/03/16 04:24:18;;;;;;;3.75;2.55;;;;;;;4.96;68.34;100719.06;6219860;23;20007;-82
2023/03/16 04:26:44;;;;;;;5.03;2.58;;;;;;;5.03;68.32;100722.88;6220021;23;20008;-85
2023/03/16 04:29:13;;;;;;;10.32;2.47;;;;;;;5.10;68.46;100724.06;6219466;23;20347;-82
2023/03/16 04:31:41;;;;;;;5.50;2.88;;;;;;;5.09;66.72;100717.13;6220175;23;20004;-83
2023/03/16 04:34:10;;;;;;;4.72;2.92;;;;;;;4.85;67.61;100719.06;6195290;23;20330;-83
2023/03/16 04:36:37;;;;;;;4.00;2.53;;;;;;;4.82;67.46;100724.56;6219891;23;20016;-81
2023/03/16 04:39:04;;;;;;;5.70;3.00;;;;;;;4.89;66.87;100720.50;6220333;23;20012;-82
2023/03/16 04:41:31;;;;;;;3.90;2.33;;;;;;;5.08;65.95;100720.72;6219418;23;20004;-82
2023/03/16 04:44:07;;;;;;;3.40;2.38;;;;;;;5.11;66.91;100721.28;6219459;23;20007;-84
2023/03/16 04:46:34;;;;;;;4.63;2.50;;;;;;;5.29;66.61;100723.41;6219432;23;20317;-79
2023/03/16 04:49:03;;;;;;;3.30;2.45;;;;;;;4.90;67.82;100728.28;6219458;23;20004;-82
2023/03/16 04:51:29;;;;;;;2.95;2.42;;;;;;;4.66;69.27;100731.03;6219814;23;20070;-83
2023/03/16 04:54:07;;;;;;;10.48;3.00;;;;;;;4.65;70.46;100729.34;6221070;23;20009;-82
2023/03/16 04:56:34;;;;;;;3.88;2.70;;;;;;;4.76;69.58;100730.28;6219867;23;20069;-84
2023/03/16 04:59:04;;;;;;;3.60;2.40;;;;;;;4.83;69.25;100734.13;6220185;23;20027;-83
2023/03/16 05:01:39;;;;;;;4.07;2.85;;;;;;;4.80;69.56;100736.97;6219754;23;20004;-82
2023/03/16 05:04:05;;;;;;;4.35;2.90;;;;;;;4.78;69.53;100739.72;6219861;23;20016;-81
2023/03/16 05:06:34;;;;;;;3.45;2.47;;;;;;;5.00;69.27;100741.50;6219892;23;20384;-83
2023/03/16 05:09:01;;;;;;;4.20;2.80;;;;;;;5.20;67.76;100746.03;6219437;23;20070;-83
2023/03/16 05:11:27;;;;;;;9.73;3.00;;;;;;;4.97;67.56;100752.25;6219300;23;20016;-81
2023/03/16 05:13:57;;;;;;;3.92;2.60;;;;;;;4.94;68.54;100755.13;6219543;23;20008;-84
2023/03/16 05:16:23;;;;;;;8.35;3.22;;;;;;;5.18;66.36;100750.53;6219543;23;20008;-83
2023/03/16 05:18:52;;;;;;;6.10;3.60;;;;;;;4.95;67.21;100762.03;6219007;23;20012;-83
2023/03/16 05:21:18;;;;;;;8.25;3.33;;;;;;;5.16;66.59;100755.09;6219646;23;20094;-83
2023/03/16 05:23:52;;;;;;;7.15;3.38;;;;;;;4.68;68.41;100760.59;6219322;23;20020;-82
2023/03/16 05:26:17;;;;;;;7.57;3.40;;;;;;;4.47;69.11;100757.03;6219490;23;20431;-83
2023/03/16 05:28:44;;;;;;;4.88;2.72;;;;;;;4.38;67.95;100762.94;6219128;23;20088;-82
2023/03/16 05:31:13;;;;;;;5.28;2.58;;;;;;;4.32;67.50;100758.16;6218984;23;20103;-83
2023/03/16 05:33:43;;;;;;;2.85;2.15;;;;;;;4.32;67.08;100758.16;6219809;23;20012;-82
2023/03/16 05:36:13;;;;;;;5.10;2.60;;;;;;;4.72;66.45;100758.56;6222146;23;20008;-83
2023/03/16 05:38:41;;;;;;;7.85;2.72;;;;;;;4.84;66.23;100760.22;6229339;23;20377;-83
2023/03/16 05:41:09;;;;;;;6.75;2.63;;;;;;;4.74;67.63;100768.97;6219607;23;20023;-81
2023/03/16 05:43:46;;;;;;;4.28;2.55;;;;;;;4.78;67.61;100765.13;6220511;23;20308;-82
2023/03/16 05:46:13;;;;;;;5.85;3.00;;;;;;;4.91;65.87;100776.34;6220607;23;20095;-80
2023/03/16 05:48:40;;;;;;;3.47;2.28;;;;;;;5.89;63.08;100772.84;6220315;23;20065;-83
2023/03/16 05:51:07;;;;;;;4.55;2.50;;;;;;;6.57;60.29;100770.53;6219424;23;20012;-83
2023/03/16 05:53:34;;;;;;;6.47;2.25;;;;;;;5.92;59.94;100770.78;6220203;23;20090;-85
2023/03/16 05:56:16;;;;;;;3.25;2.17;;;;;;;6.22;60.02;100775.31;6230660;23;20028;-82
2023/03/16 05:58:47;;;;;;;4.35;2.58;;;;;;;6.96;57.28;100784.72;6230062;23;20036;-82
2023/03/16 06:01:14;;;;;;;3.83;2.63;;;;;;;7.36;54.90;100787.34;6231585;23;20023;-83
2023/03/16 06:03:41;;;;;;;6.63;2.88;;;;;;;7.82;52.65;100791.19;6230068;23;20023;-82
2023/03/16 06:06:10;;;;;;;9.57;3.00;;;;;;;7.17;54.18;100797.84;6230251;23;20316;-82
2023/03/16 06:08:47;;;;;;;9.02;2.28;;;;;;;7.30;53.92;100787.88;6230169;23;20091;-80
2023/03/16 06:11:13;;;;;;;6.35;2.50;;;;;;;7.64;52.27;100794.50;6230865;23;20458;-81
2023/03/16 06:13:40;;;;;;;4.07;1.77;;;;;;;7.26;52.11;100802.31;6227323;23;20014;-80
2023/03/16 06:16:12;;;;;;;3.95;2.10;;;;;;;7.78;50.93;100802.03;6229265;23;20012;-82
2023/03/16 06:18:39;;;;;;;7.60;2.25;;;;;;;7.34;52.63;100805.13;6225780;23;20095;-83
2023/03/16 06:21:06;;;;;;;4.25;2.28;;;;;;;7.22;52.86;100804.38;6221104;23;20012;-82
2023/03/16 06:23:33;;;;;;;6.20;2.05;;;;;;;7.28;52.84;100805.66;6220391;23;20335;-80
2023/03/16 06:26:00;;;;;;;9.00;1.75;;;;;;;7.50;52.80;100815.97;6220160;23;20039;-80
2023/03/16 06:28:28;;;;;;;3.83;1.63;;;;;;;7.49;52.57;100819.56;6247411;23;20031;-85
2023/03/16 06:30:56;;;;;;;2.88;1.95;;;;;;;7.58;51.82;100818.78;6224362;23;20111;-83
2023/03/16 06:33:24;;;;;;;4.00;1.92;;;;;;;7.88;51.00;100830.22;6220976;23;20062;-84
2023/03/16 06:35:50;;;;;;;3.88;1.90;;;;;;;8.27;50.17;100834.53;6226673;23;20004;-89
2023/03/16 06:38:27;;;;;;;3.15;1.85;;;;;;;8.76;49.38;100844.94;6229862;23;20019;-86
2023/03/16 06:40:58;;;;;;;;;;;;;;;8.85;48.91;100842.41;6230410;23;20035;-85
2023/03/16 06:43:23;;;;;;;5.97;2.10;;;;;;;8.73;49.28;100850.50;6228331;23;20323;-88
2023/03/16 06:45:52;;;;;;;6.22;1.98;;;;;;;9.11;48.97;100857.50;6226437;23;20008;-85
2023/03/16 06:48:19;;;;;;;19.50;2.47;;;;;;;9.07;48.88;100868.50;6232307;23;20046;-87
2023/03/16 06:50:53;;;;;;;3.47;1.98;;;;;;;9.28;48.46;100866.47;6211289;23;20020;-88
2023/03/16 06:53:23;;;;;;;7.45;2.28;;;;;;;9.48;47.47;100873.34;6211230;23;20016;-89
2023/03/16 06:55:48;;;;;;;6.97;2.38;;;;;;;10.00;46.80;100873.63;6258837;23;20007;-88
2023/03/16 06:58:17;;;;;;;5.30;2.35;;;;;;;10.48;45.09;100876.75;6260620;23;20011;-88
2023/03/16 07:00:44;;;;;;;10.23;2.40;;;;;;;10.29;45.26;100874.25;6224506;23;20011;-87
2023/03/16 07:03:09;;;;;;;10.45;3.00;;;;;;;10.43;45.85;100876.38;6223197;23;20012;-85
2023/03/16 07:05:36;;;;;;;9.60;3.33;;;;;;;10.85;45.57;100880.03;6220911;23;20020;-86
2023/03/16 07:08:03;;;;;;;5.72;3.80;;;;;;;11.04;45.43;100881.63;6222357;23;20038;-86
2023/03/16 07:10:30;;;;;;;7.47;3.55;;;;;;;10.96;45.98;100888.72;6203939;23;20020;-86
2023/03/16 07:12:55;;;;;;;6.25;4.00;;;;;;;11.66;45.03;100888.44;6236024;23;20019;-86
2023/03/16 07:15:21;;;;;;;7.90;4.10;;;;;;;13.08;42.02;100887.28;6211706;23;20016;-85
2023/03/16 07:17:46;;;;;;;9.32;3.90;;;;;;;12.15;43.35;100896.59;6227205;23;20012;-87
2023/03/16 07:20:12;;;;;;;15.77;4.00;;;;;;;13.16;42.01;100905.91;6224576;23;20347;-88
2023/03/16 07:22:40;;;;;;;7.43;4.03;;;;;;;13.39;40.49;100912.19;6250445;23;20040;-87
2023/03/16 07:25:10;;;;;;;10.48;4.32;;;;;;;13.73;40.33;100915.41;6213323;23;20060;-90
2023/03/16 07:27:37;;;;;;;7.85;3.88;;;;;;;14.01;38.85;100923.78;6272273;22;20027;-86
2023/03/16 07:30:07;;;;;;;9.93;4.40;;;;;;;13.63;38.76;100922.75;6229807;23;20088;-90
2023/03/16 07:32:36;;;;;;;12.07;4.00;;;;;;;14.78;35.72;100928.09;6206906;23;20079;-89
2023/03/16 07:35:02;;;;;;;7.50;3.67;;;;;;;14.16;36.21;100940.69;6228720;23;20343;-88
2023/03/16 07:37:33;;;;;;;11.40;3.88;;;;;;;14.79;35.75;100936.94;6229189;23;20008;-87
2023/03/16 07:40:00;;;;;;;13.50;4.05;;;;;;;14.21;36.23;100945.50;6256034;23;20089;-89
2023/03/16 07:42:29;;;;;;;7.72;4.05;;;;;;;14.72;36.80;100946.66;6229790;23;20085;-87
2023/03/16 07:45:04;;;;;;;9.98;4.00;;;;;;;15.65;35.45;100950.66;6222428;23;20019;-87
2023/03/16 07:47:30;;;;;;;7.07;3.65;;;;;;;14.58;37.25;100945.63;6221611;23;20054;-86
2023/03/16 07:50:00;;;;;;;6.43;3.78;;;;;;;14.27;37.65;100952.78;6222870;23;20020;-88
2023/03/16 07:52:27;;;;;;;12.13;4.00;;;;;;;13.35;39.59;100953.47;6197852;23;20446;-87
2023/03/16 07:54:54;;;;;;;11.48;4.53;;;;;;;13.28;41.18;100948.00;6222230;23;20373;-86
2023/03/16 07:57:20;;;;;;;6.78;4.63;;;;;;;13.52;40.96;100960.44;6221841;23;20010;-86
2023/03/16 07:59:46;;;;;;;10.38;5.28;;;;;;;14.80;39.59;100965.28;6221730;23;20043;-87
2023/03/16 08:02:17;;;;;;;15.73;5.85;;;;;;;14.95;39.84;100966.16;6222899;23;20107;-88
2023/03/16 08:04:43;;;;;;;10.82;5.70;;;;;;;14.74;40.86;100969.53;6251870;23;20012;-86
2023/03/16 08:07:11;;;;;;;12.82;6.32;;;;;;;15.54;41.27;100977.00;6202343;23;20391;-87
2023/03/16 08:09:50;;;;;;;9.07;5.85;;;;;;;14.81;41.22;100978.47;6223909;23;20085;-87
2023/03/16 08:12:21;;;;;;;9.20;5.30;;;;;;;14.59;42.27;100978.44;6224865;23;20017;-88
2023/03/16 08:14:53;;;;;;;11.57;6.93;;;;;;;15.33;41.45;100980.34;6228105;23;20348;-88
2023/03/16 08:17:23;;;;;;;9.15;6.20;;;;;;;14.65;42.98;100978.56;6231798;23;20012;-88
2023/03/16 08:19:50;;;;;;;8.73;6.35;;;;;;;15.00;43.44;100977.16;6229506;23;20035;-91
2023/03/16 08:22:16;;;;;;;9.63;6.72;;;;;;;15.45;41.94;100977.06;6158706;23;20066;-89
2023/03/16 08:24:44;;;;;;;13.98;7.10;;;;;;;15.15;43.73;100982.50;6207956;23;20019;-88
2023/03/16 08:27:12;;;;;;;13.48;6.88;;;;;;;16.29;41.33;100988.28;6227961;23;20451;-91
2023/03/16 08:29:41;;;;;;;9.35;6.35;;;;;;;16.20;41.53;100984.91;6202267;23;20103;-89
2023/03/16 08:32:11;;;;;;;17.45;7.03;;;;;;;17.07;41.53;100992.84;6226403;23;20012;-88
2023/03/16 08:34:41;;;;;;;14.50;7.57;;;;;;;16.10;41.39;100991.56;6231414;23;20012;-86
2023/03/16 08:37:08;;;;;;;11.57;7.47;;;;;;;15.36;42.68;101002.19;6197905;23;20012;-85
2023/03/16 08:39:34;;;;;;;13.55;7.80;;;;;;;15.02;44.50;100997.31;6223899;23;20018;-89
2023/03/16 08:42:03;;;;;;;12.25;7.68;;;;;;;15.34;43.85;100998.03;6197751;23;20008;-87
2023/03/16 08:44:37;;;;;;;11.90;7.32;;;;;;;15.92;42.90;101003.47;6222525;23;20008;-88
2023/03/16 08:47:04;;;;;;;12.23;7.60;;;;;;;15.67;43.05;101004.75;6224676;23;20051;-86
2023/03/16 08:49:30;;;;;;;10.82;7.55;;;;;;;15.68;44.24;101010.91;6225001;23;20392;-86
2023/03/16 08:52:04;;;;;;;14.23;7.35;;;;;;;15.17;45.67;101004.53;6226306;23;20344;-88
2023/03/16 08:54:31;;;;;;;15.52;7.43;;;;;;;15.20;47.46;101018.38;6238290;23;20012;-89
2023/03/16 08:56:57;;;;;;;12.18;8.23;;;;;;;14.95;46.51;101008.88;6261926;23;20428;-88
2023/03/16 08:59:23;;;;;;;11.45;7.93;;;;;;;15.35;46.19;101016.53;6262871;23;20058;-87
2023/03/16 09:01:49;;;;;;;10.57;7.85;;;;;;;15.62;45.75;101014.31;6240626;23;20000;-84
2023/03/16 09:04:14;;;;;;;13.30;8.10;;;;;;;15.85;43.90;101021.25;6246843;23;20031;-87
2023/03/16 09:06:40;;;;;;;11.57;8.18;;;;;;;15.73;44.16;101013.88;6271539;22;20132;-85
2023/03/16 09:09:08;;;;;;;17.42;7.60;;;;;;;15.45;45.49;101027.81;6252143;23;20016;-86
2023/03/16 09:11:34;;;;;;;13.75;7.95;;;;;;;15.94;44.45;101033.50;6249289;23;20016;-86
2023/03/16 09:14:00;;;;;;;15.40;8.05;;;;;;;15.90;44.85;101032.22;6248169;23;20004;-85
2023/03/16 09:16:26;;;;;;;16.58;8.02;;;;;;;16.71;42.65;101030.38;6247998;23;20437;-86
2023/03/16 09:18:54;;;;;;;12.75;7.43;;;;;;;17.59;41.80;101035.34;6253045;23;20004;-87
2023/03/16 09:21:20;;;;;;;18.70;7.63;;;;;;;16.71;42.02;101046.44;6265226;23;20016;-88
2023/03/16 09:23:47;;;;;;;15.18;7.75;;;;;;;16.87;41.17;101047.03;6253954;23;20011;-87
2023/03/16 09:26:13;;;;;;;20.23;7.60;;;;;;;17.08;40.81;101053.41;6254156;23;20008;-86
2023/03/16 09:28:40;;;;;;;13.65;7.32;;;;;;;17.37;39.25;101043.38;6224767;23;20012;-88
2023/03/16 09:31:14;;;;;;;11.00;7.22;;;;;;;16.78;40.86;101045.50;6223991;23;20012;-86
2023/03/16 09:33:40;;;;;;;14.43;8.07;;;;;;;16.40;42.62;101044.00;6253869;23;20023;-89
2023/03/16 09:36:06;;;;;;;23.25;8.25;;;;;;;16.97;40.93;101052.91;6202811;23;20004;-87
2023/03/16 09:38:31;;;;;;;23.95;7.30;;;;;;;16.72;40.78;101054.28;6224942;23;20008;-87
2023/03/16 09:41:06;;;;;;;10.30;7.18;;;;;;;17.29;40.66;101040.03;6225105;23;20012;-89
2023/03/16 09:43:53;;;;;;;12.50;7.88;;;;;;;17.00;41.39;101060.53;6224108;23;20008;-90
2023/03/16 09:46:35;;;;;;;10.65;7.32;;;;;;;17.03;40.98;101056.69;6252090;23;20011;-88
2023/03/16 09:49:04;;;;;;;13.63;7.75;;;;;;;17.02;40.88;101055.84;6224209;23;20459;-85
2023/03/16 09:52:05;;;;;;;18.55;7.55;;;;;;;18.39;37.18;101059.75;6226800;23;20036;-89
2023/03/16 09:54:54;;;;;;;11.30;6.45;;;;;;;18.21;37.11;101054.09;6248884;23;20012;-87
2023/03/16 09:57:27;;;;;;;10.82;7.85;;;;;;;17.11;40.66;101055.69;6231536;23;20057;-86
2023/03/16 09:59:59;;;;;;;19.55;7.85;;;;;;;17.00;41.21;101052.50;6252511;23;20012;-87
2023/03/16 10:02:43;;;;;;;12.27;8.52;;;;;;;17.52;41.29;101056.69;6249182;23;20008;-90
2023/03/16 10:05:15;;;;;;;22.95;8.20;;;;;;;18.65;39.85;101051.84;6221151;23;20023;-86
2023/03/16 10:07:44;;;;;;;;;;;;;;;18.42;37.33;101048.63;6255852;23;20095;-88
2023/03/16 10:10:10;;;;;;;8.27;5.60;;;;;;;18.33;34.08;101061.38;6228942;23;19918;-89
2023/03/16 10:12:42;;;;;;;12.65;5.80;;;;;;;17.87;35.73;101055.75;6253400;23;20308;-91
2023/03/16 10:15:15;;;;;;;9.38;5.97;;;;;;;18.01;35.51;101054.81;6230882;23;20023;-91
2023/03/16 10:18:06;;;;;;;7.90;4.78;;;;;;;19.01;32.11;101070.31;6228922;23;20043;-89
2023/03/16 10:20:34;;;;;;;10.00;5.10;;;;;;;20.05;32.14;101064.09;6256489;23;20034;-90
2023/03/16 10:23:13;;;;;;;7.53;5.38;;;;;;;19.60;32.54;101071.22;6206474;23;20012;-90
2023/03/16 10:25:53;;;;;;;5.63;4.10;;;;;;;19.58;30.45;101083.22;6233228;23;20012;-90
2023/03/16 10:28:22;;;;;;;5.80;4.35;;;;;;;19.01;31.02;101073.84;6257887;23;20012;-90
2023/03/16 10:30:51;;;;;;;6.75;4.60;;;;;;;19.85;30.88;101067.91;6205253;23;20027;-89
2023/03/16 10:33:38;;;;;;;8.02;5.05;;;;;;;20.93;30.01;101067.94;6236593;23;20020;-89
2023/03/16 10:36:23;;;;;;;7.45;5.05;;;;;;;20.58;29.35;101064.78;6221526;23;20004;-89
2023/03/16 10:39:07;;;;;;;7.78;4.80;;;;;;;20.08;29.59;101058.28;6246850;23;20005;-85
2023/03/16 10:41:35;;;;;;;8.60;4.78;;;;;;;19.61;29.47;101066.66;6271342;22;20007;-89
2023/03/16 10:44:15;;;;;;;7.78;4.30;;;;;;;20.40;29.38;101051.19;6242987;23;20027;-89
2023/03/16 10:46:49;;;;;;;12.18;4.82;;;;;;;20.46;29.23;101053.03;6205602;23;20012;-90
2023/03/16 10:49:47;;;;;;;14.75;4.65;;;;;;;20.86;28.44;101071.69;6232573;23;20046;-89
2023/03/16 10:52:22;;;;;;;7.68;4.50;;;;;;;20.75;28.25;101051.66;6251838;23;20016;-87
2023/03/16 10:55:10;;;;;;;6.22;4.18;;;;;;;20.05;29.32;101047.16;6231702;23;20027;-91
2023/03/16 10:57:40;;;;;;;6.80;4.00;;;;;;;20.54;28.72;101049.28;6234201;23;20031;-91
2023/03/16 11:00:14;;;;;;;9.70;5.82;;;;;;;21.25;26.37;101059.84;6209808;23;20452;-89
2023/03/16 11:02:42;;;;;;;9.00;4.32;;;;;;;22.46;25.60;101063.69;6260304;23;20438;-89
2023/03/16 11:05:31;;;;;;;4.85;3.45;;;;;;;22.53;25.03;101056.31;6230714;23;20034;-89
2023/03/16 11:08:09;;;;;;;5.00;3.38;;;;;;;22.07;25.42;101049.56;6202604;23;20004;-89
2023/03/16 11:10:58;;;;;;;9.30;3.55;;;;;;;22.75;24.57;101057.50;6231025;23;20379;-90
2023/03/16 11:13:34;;;;;;;5.55;3.60;;;;;;;22.23;24.90;101061.69;6231410;23;20031;-90
2023/03/16 11:16:38;;;;;;;4.82;3.70;;;;;;;22.44;25.41;101060.38;6234282;23;20015;-92
2023/03/16 11:19:28;;;;;;;6.53;3.60;;;;;;;21.05;26.76;101050.00;6235021;23;20071;-88
2023/03/16 11:22:19;;;;;;;12.32;3.63;;;;;;;20.09;28.10;101043.81;6261419;23;20012;-89
2023/03/16 11:25:06;;;;;;;14.98;3.85;;;;;;;19.78;27.70;101049.06;6234914;23;20062;-92
2023/03/16 11:27:40;;;;;;;8.13;3.45;;;;;;;19.09;28.70;101038.69;6233669;23;20012;-89
2023/03/16 11:30:22;;;;;;;4.57;3.10;;;;;;;20.27;27.21;101040.50;6257901;23;20079;-89
2023/03/16 11:32:52;;;;;;;8.02;3.55;;;;;;;20.77;27.09;101030.72;6255032;23;20062;-89
2023/03/16 11:35:19;;;;;;;7.88;3.05;;;;;;;20.37;26.47;101034.66;6254678;23;20046;-90
2023/03/16 11:37:47;;;;;;;6.25;2.58;;;;;;;22.14;24.54;101038.69;6254827;23;20012;-90
2023/03/16 11:40:28;;;;;;;9.68;2.97;;;;;;;20.33;26.28;101030.72;6229535;23;20131;-91
2023/03/16 11:43:32;;;;;;;6.18;3.15;;;;;;;18.42;29.06;101032.50;6263511;23;20020;-91
2023/03/16 11:46:26;;;;;;;6.57;3.20;;;;;;;18.84;30.03;101023.38;6236224;23;20076;-89